createdAt,value
2018-08-16T00:02:02.019Z,11.67
2018-08-16T00:04:30.450Z,12.27
2018-08-16T00:06:58.924Z,11.63
2018-08-16T00:09:27.489Z,13.23
2018-08-16T00:11:55.954Z,11.57
2018-08-16T00:14:24.478Z,12.90
2018-08-16T00:16:52.921Z,12.67
2018-08-16T00:19:21.437Z,12.47
2018-08-16T00:21:49.876Z,11.67
2018-08-16T00:24:18.382Z,12.43
2018-08-16T00:26:46.850Z,12.73
2018-08-16T00:29:31.782Z,13.17
2018-08-16T00:32:00.397Z,12.53
2018-08-16T00:34:28.852Z,12.33
2018-08-16T00:36:57.409Z,11.40
2018-08-16T00:39:25.830Z,12.70
2018-08-16T00:41:54.284Z,13.40
2018-08-16T00:44:22.745Z,11.50
2018-08-16T00:46:51.240Z,12.60
2018-08-16T00:49:19.721Z,12.30
2018-08-16T00:51:48.498Z,12.33
2018-08-16T00:54:16.950Z,13.97
2018-08-16T00:56:45.749Z,13.53
2018-08-16T00:59:14.252Z,12.87
2018-08-16T01:01:42.680Z,11.80
2018-08-16T01:04:11.076Z,12.40
2018-08-16T01:06:39.454Z,13.10
2018-08-16T01:09:09.268Z,13.27
2018-08-16T01:11:37.893Z,13.43
2018-08-16T01:14:07.310Z,13.37
2018-08-16T01:16:35.861Z,13.73
2018-08-16T01:19:04.482Z,13.37
2018-08-16T01:21:32.966Z,11.50
2018-08-16T01:24:01.496Z,13.80
2018-08-16T01:26:29.984Z,15.97
2018-08-16T01:28:58.462Z,15.33
2018-08-16T01:31:26.972Z,13.93
2018-08-16T01:33:55.460Z,14.53
2018-08-16T01:36:23.857Z,14.17
2018-08-16T01:38:55.443Z,15.67
2018-08-16T01:41:24.884Z,14.33
2018-08-16T01:43:53.434Z,15.03
2018-08-16T01:46:21.876Z,13.93
2018-08-16T01:48:50.416Z,15.17
2018-08-16T01:51:18.990Z,16.07
2018-08-16T01:53:47.521Z,15.17
2018-08-16T01:56:16.113Z,15.20
2018-08-16T01:58:44.633Z,13.17
2018-08-16T02:01:13.117Z,15.53
2018-08-16T02:03:42.244Z,15.30
2018-08-16T02:06:10.784Z,14.30
2018-08-16T02:08:39.273Z,15.50
2018-08-16T02:11:08.921Z,15.57
2018-08-16T02:13:37.360Z,15.87
2018-08-16T02:16:05.968Z,16.07
2018-08-16T02:18:34.459Z,16.30
2018-08-16T02:21:03.130Z,12.83
2018-08-16T02:23:32.314Z,15.37
2018-08-16T02:26:05.733Z,15.30
2018-08-16T02:28:34.345Z,15.10
2018-08-16T02:31:03.684Z,13.23
2018-08-16T02:33:33.984Z,13.73
2018-08-16T02:36:03.200Z,14.90
2018-08-16T02:38:31.705Z,12.73
2018-08-16T02:41:00.539Z,14.13
2018-08-16T02:43:29.096Z,13.53
2018-08-16T02:45:57.730Z,14.93
2018-08-16T02:48:26.234Z,13.63
2018-08-16T02:50:54.698Z,12.30
2018-08-16T02:53:23.898Z,14.07
2018-08-16T02:55:52.654Z,12.80
2018-08-16T02:58:21.324Z,13.43
2018-08-16T03:00:49.907Z,12.17
2018-08-16T03:03:18.553Z,12.90
2018-08-16T03:05:47.104Z,12.70
2018-08-16T03:08:15.608Z,12.10
2018-08-16T03:10:43.981Z,11.70
2018-08-16T03:13:12.485Z,10.83
2018-08-16T03:15:41.154Z,12.13
2018-08-16T03:18:09.759Z,12.13
2018-08-16T03:20:38.381Z,12.20
2018-08-16T03:23:11.059Z,11.60
2018-08-16T03:25:39.819Z,11.97
2018-08-16T03:28:08.384Z,11.83
2018-08-16T03:30:37.283Z,10.87
2018-08-16T03:33:05.747Z,10.17
2018-08-16T03:35:34.198Z,10.83
2018-08-16T03:38:02.696Z,10.40
2018-08-16T03:40:31.485Z,11.47
2018-08-16T03:43:00.455Z,10.97
2018-08-16T03:45:28.988Z,11.90
2018-08-16T03:47:57.474Z,10.83
2018-08-16T03:50:25.972Z,11.77
2018-08-16T03:52:54.401Z,10.37
2018-08-16T03:55:23.075Z,11.00
2018-08-16T03:57:51.721Z,9.70
2018-08-16T04:00:20.216Z,9.57
2018-08-16T04:02:48.548Z,10.80
2018-08-16T04:05:16.925Z,9.90
2018-08-16T04:07:45.427Z,10.33
2018-08-16T04:10:13.841Z,12.03
2018-08-16T04:12:42.394Z,9.80
2018-08-16T04:15:10.947Z,9.90
2018-08-16T04:17:39.390Z,11.77
2018-08-16T04:20:07.838Z,9.93
2018-08-16T04:22:37.581Z,12.00
2018-08-16T04:25:06.093Z,10.70
2018-08-16T04:27:34.957Z,11.00
2018-08-16T04:30:03.317Z,10.00
2018-08-16T04:32:31.704Z,9.57
2018-08-16T04:35:00.263Z,10.53
2018-08-16T04:37:28.618Z,9.83
2018-08-16T04:40:02.309Z,11.83
2018-08-16T04:42:30.900Z,8.80
2018-08-16T04:44:59.510Z,11.23
2018-08-16T04:47:27.993Z,11.60
2018-08-16T04:49:56.540Z,11.67
2018-08-16T04:52:24.948Z,12.43
2018-08-16T04:54:53.389Z,11.23
2018-08-16T04:57:21.965Z,10.73
2018-08-16T04:59:50.402Z,11.13
2018-08-16T05:02:19.044Z,11.10
2018-08-16T05:04:47.505Z,9.93
2018-08-16T05:07:19.984Z,10.13
2018-08-16T05:09:48.735Z,10.50
2018-08-16T05:12:17.178Z,11.03
2018-08-16T05:14:45.666Z,11.53
2018-08-16T05:17:14.174Z,10.20
2018-08-16T05:19:42.698Z,12.33
2018-08-16T05:22:11.557Z,10.87
2018-08-16T05:24:51.850Z,11.57
2018-08-16T05:27:20.281Z,9.70
2018-08-16T05:29:48.793Z,9.03
2018-08-16T05:32:17.245Z,10.37
2018-08-16T05:34:45.715Z,10.57
2018-08-16T05:37:14.348Z,10.90
2018-08-16T05:39:42.805Z,9.80
2018-08-16T05:42:11.759Z,9.67
2018-08-16T05:44:40.245Z,10.83
2018-08-16T05:47:08.632Z,10.67
2018-08-16T05:49:37.089Z,10.90
2018-08-16T05:52:05.545Z,11.07
2018-08-16T05:54:34.064Z,10.00
2018-08-16T05:57:02.589Z,10.73
2018-08-16T05:59:31.071Z,10.97
2018-08-16T06:01:59.494Z,11.63
2018-08-16T06:04:27.900Z,10.37
2018-08-16T06:06:56.517Z,9.77
2018-08-16T06:09:25.026Z,11.80
2018-08-16T06:11:53.608Z,10.47
2018-08-16T06:14:22.062Z,9.70
2018-08-16T06:16:50.522Z,9.60
2018-08-16T06:19:18.954Z,10.53
2018-08-16T06:21:47.432Z,10.83
2018-08-16T06:24:15.873Z,11.03
2018-08-16T06:26:44.352Z,8.83
2018-08-16T06:29:12.948Z,10.43
2018-08-16T06:31:41.489Z,10.30
2018-08-16T06:34:09.950Z,9.43
2018-08-16T06:36:38.320Z,8.57
2018-08-16T06:39:23.161Z,10.27
2018-08-16T06:41:51.587Z,8.43
2018-08-16T06:44:20.011Z,8.07
2018-08-16T06:46:48.478Z,8.47
2018-08-16T06:49:16.948Z,8.83
2018-08-16T06:51:45.388Z,7.47
2018-08-16T06:54:13.807Z,8.53
2018-08-16T06:56:42.300Z,8.00
2018-08-16T06:59:10.729Z,7.23
2018-08-16T07:01:47.562Z,7.30
2018-08-16T07:04:16.018Z,7.37
2018-08-16T07:06:44.449Z,6.67
2018-08-16T07:09:12.918Z,6.90
2018-08-16T07:11:41.374Z,7.13
2018-08-16T07:14:09.840Z,6.93
2018-08-16T07:16:38.243Z,6.67
2018-08-16T07:19:06.657Z,6.93
2018-08-16T07:21:35.194Z,6.17
2018-08-16T07:24:03.684Z,5.87
2018-08-16T07:26:32.142Z,6.23
2018-08-16T07:29:00.504Z,5.70
2018-08-16T07:31:28.973Z,6.37
2018-08-16T07:33:57.423Z,5.40
2018-08-16T07:36:26.836Z,5.10
2018-08-16T07:38:55.270Z,4.87
2018-08-16T07:41:23.641Z,5.13
2018-08-16T07:43:52.040Z,4.37
2018-08-16T07:46:20.532Z,4.90
2018-08-16T07:48:48.893Z,5.20
2018-08-16T07:51:17.411Z,5.23
2018-08-16T07:53:45.829Z,5.00
2018-08-16T07:56:14.253Z,4.70
2018-08-16T07:58:42.655Z,5.73
2018-08-16T08:01:11.028Z,6.40
2018-08-16T08:03:39.637Z,5.50
2018-08-16T08:06:08.153Z,5.50
2018-08-16T08:08:36.584Z,4.80
2018-08-16T08:11:04.981Z,4.63
2018-08-16T08:13:33.675Z,4.47
2018-08-16T08:16:05.578Z,4.53
2018-08-16T08:18:34.081Z,4.70
2018-08-16T08:21:02.507Z,5.00
2018-08-16T08:23:36.114Z,4.80
2018-08-16T08:26:06.747Z,4.57
2018-08-16T08:28:37.220Z,4.77
2018-08-16T08:31:05.832Z,4.40
2018-08-16T08:33:34.353Z,4.57
2018-08-16T08:36:13.871Z,4.60
2018-08-16T08:38:42.291Z,4.83
2018-08-16T08:41:10.700Z,5.27
2018-08-16T08:43:50.468Z,4.97
2018-08-16T08:46:19.093Z,5.10
2018-08-16T08:48:47.510Z,4.93
2018-08-16T08:51:16.114Z,4.27
2018-08-16T08:54:54.697Z,4.37
2018-08-16T08:57:35.422Z,4.37
2018-08-16T09:00:03.877Z,4.13
2018-08-16T09:02:32.299Z,5.00
2018-08-16T09:05:00.777Z,5.60
2018-08-16T09:07:33.390Z,5.67
2018-08-16T09:11:14.780Z,4.63
2018-08-16T09:14:07.659Z,4.73
2018-08-16T09:16:42.651Z,5.17
2018-08-16T09:19:12.601Z,5.57
2018-08-16T09:21:41.419Z,5.03
2018-08-16T09:24:10.103Z,5.47
2018-08-16T09:26:44.530Z,6.50
2018-08-16T09:30:22.886Z,5.50
2018-08-16T09:33:03.613Z,5.70
2018-08-16T09:35:32.143Z,5.80
2018-08-16T09:38:00.524Z,5.33
2018-08-16T09:40:29.369Z,5.23
2018-08-16T09:42:57.950Z,5.57
2018-08-16T09:45:37.763Z,5.07
2018-08-16T09:48:17.268Z,5.73
2018-08-16T09:50:45.908Z,5.53
2018-08-16T09:53:14.494Z,5.93
2018-08-16T09:55:42.930Z,6.47
2018-08-16T09:58:11.558Z,6.53
2018-08-16T10:00:45.529Z,5.87
2018-08-16T10:03:13.998Z,7.28
2018-08-16T10:05:42.409Z,7.40
2018-08-16T10:08:10.964Z,5.93
2018-08-16T10:10:39.405Z,6.07
2018-08-16T10:13:07.917Z,6.07
2018-08-16T10:15:37.770Z,7.20
2018-08-16T10:18:06.341Z,5.80
2018-08-16T10:20:34.788Z,7.10
2018-08-16T10:23:03.289Z,5.87
2018-08-16T10:25:31.754Z,5.90
2018-08-16T10:28:00.198Z,6.90
2018-08-16T10:30:28.680Z,7.23
2018-08-16T10:32:57.115Z,5.87
2018-08-16T10:35:25.621Z,6.20
2018-08-16T10:37:55.197Z,6.80
2018-08-16T10:40:23.803Z,6.57
2018-08-16T10:42:52.209Z,6.97
2018-08-16T10:45:20.733Z,6.27
2018-08-16T10:47:49.112Z,7.23
2018-08-16T10:50:17.545Z,6.17
2018-08-16T10:52:45.944Z,6.67
2018-08-16T10:55:14.438Z,6.93
2018-08-16T10:57:42.964Z,6.73
2018-08-16T11:00:11.458Z,5.77
2018-08-16T11:02:40.432Z,5.80
2018-08-16T11:05:08.984Z,5.73
2018-08-16T11:07:37.535Z,6.13
2018-08-16T11:10:06.225Z,6.30
2018-08-16T11:12:34.812Z,6.90
2018-08-16T11:15:03.526Z,6.77
2018-08-16T11:17:32.017Z,6.07
2018-08-16T11:20:00.530Z,6.20
2018-08-16T11:22:29.100Z,5.77
2018-08-16T11:24:58.364Z,5.63
2018-08-16T11:27:28.314Z,6.57
2018-08-16T11:29:56.691Z,7.10
2018-08-16T11:32:25.098Z,6.10
2018-08-16T11:34:53.624Z,6.93
2018-08-16T11:37:22.660Z,6.47
2018-08-16T11:39:51.201Z,7.17
2018-08-16T11:42:20.208Z,7.17
2018-08-16T11:44:48.650Z,6.90
2018-08-16T11:47:17.145Z,6.70
2018-08-16T11:49:45.575Z,5.70
2018-08-16T11:52:14.041Z,5.27
2018-08-16T11:54:42.449Z,6.23
2018-08-16T11:57:10.913Z,6.07
2018-08-16T11:59:40.763Z,5.50
2018-08-16T12:02:09.227Z,6.27
2018-08-16T12:04:43.607Z,6.80
2018-08-16T12:09:53.318Z,5.73
2018-08-16T12:12:26.178Z,6.13
2018-08-16T12:14:59.479Z,5.60
2018-08-16T12:17:28.978Z,5.87
2018-08-16T12:20:06.022Z,5.77
2018-08-16T12:22:37.579Z,6.40
2018-08-16T12:25:17.506Z,7.20
2018-08-16T12:27:50.608Z,6.60
2018-08-16T12:30:20.981Z,6.17
2018-08-16T12:32:56.974Z,5.53
2018-08-16T12:35:27.214Z,5.70
2018-08-16T12:37:55.977Z,5.73
2018-08-16T12:40:25.134Z,6.50
2018-08-16T12:42:53.704Z,7.63
2018-08-16T12:45:23.400Z,6.90
2018-08-16T12:47:51.916Z,5.80
2018-08-16T12:50:29.568Z,6.47
2018-08-16T12:53:01.377Z,7.03
2018-08-16T12:55:34.856Z,5.70
2018-08-16T12:58:15.084Z,5.90
2018-08-16T13:00:52.913Z,6.60
2018-08-16T13:03:21.390Z,5.33
2018-08-16T13:05:52.655Z,6.20
2018-08-16T13:08:24.136Z,5.93
2018-08-16T13:10:54.688Z,5.93
2018-08-16T13:13:54.539Z,6.43
2018-08-16T13:16:23.444Z,6.17
2018-08-16T13:18:51.956Z,6.20
2018-08-16T13:24:07.508Z,6.30
2018-08-16T13:26:40.446Z,6.03
2018-08-16T13:29:09.574Z,7.10
2018-08-16T13:40:01.201Z,7.08
2018-08-16T13:42:32.416Z,5.93
2018-08-16T13:45:04.345Z,5.97
2018-08-16T13:47:42.692Z,5.83
2018-08-16T14:27:59.320Z,5.10
2018-08-16T14:30:27.813Z,4.30
2018-08-16T14:32:56.353Z,5.30
2018-08-16T14:35:24.824Z,6.80
2018-08-16T14:37:53.372Z,5.43
2018-08-16T14:40:21.846Z,5.93
2018-08-16T14:42:50.462Z,5.60
2018-08-16T14:45:18.960Z,5.60
2018-08-16T14:47:47.628Z,6.47
2018-08-16T14:50:16.070Z,5.33
2018-08-16T14:52:44.523Z,5.50
2018-08-16T14:55:12.981Z,6.37
2018-08-16T14:57:41.441Z,5.37
2018-08-16T15:00:10.566Z,5.37
2018-08-16T15:02:39.219Z,4.70
2018-08-16T15:05:08.413Z,5.23
2018-08-16T15:07:36.916Z,5.53
2018-08-16T15:10:08.913Z,4.97
2018-08-16T15:12:37.488Z,6.17
2018-08-16T15:15:06.241Z,5.27
2018-08-16T15:17:34.702Z,5.10
2018-08-16T15:20:04.673Z,5.43
2018-08-16T15:22:33.168Z,6.00
2018-08-16T15:25:01.969Z,6.00
2018-08-16T15:27:30.800Z,4.37
2018-08-16T15:29:59.410Z,5.30
2018-08-16T15:32:27.905Z,5.70
2018-08-16T15:34:56.428Z,5.10
2018-08-16T15:37:25.067Z,6.20
2018-08-16T15:39:53.504Z,6.10
2018-08-16T15:42:24.137Z,5.60
2018-08-16T15:44:52.668Z,4.27
2018-08-16T15:47:21.245Z,5.07
2018-08-16T15:49:49.783Z,5.20
2018-08-16T15:52:23.777Z,5.30
2018-08-16T15:54:52.913Z,4.40
2018-08-16T15:57:21.480Z,5.00
2018-08-16T15:59:49.951Z,4.70
2018-08-16T16:02:18.632Z,5.10
2018-08-16T16:04:47.253Z,4.03
2018-08-16T16:07:15.771Z,5.47
2018-08-16T16:09:44.353Z,4.63
2018-08-16T16:12:12.830Z,4.23
2018-08-16T16:14:47.271Z,4.20
2018-08-16T16:17:15.843Z,3.80
2018-08-16T16:19:49.737Z,3.53
2018-08-16T16:22:20.077Z,3.50
2018-08-16T16:24:49.592Z,3.50
2018-08-16T16:27:19.478Z,3.30
2018-08-16T16:29:52.713Z,3.00
2018-08-16T16:32:21.370Z,4.07
2018-08-16T16:34:49.823Z,3.13
2018-08-16T16:37:19.448Z,3.47
2018-08-16T16:39:49.064Z,3.40
2018-08-16T16:42:17.665Z,3.53
2018-08-16T16:44:46.812Z,4.37
2018-08-16T16:47:16.141Z,4.40
2018-08-16T16:49:44.676Z,3.23
2018-08-16T16:52:13.183Z,3.70
2018-08-16T16:54:41.686Z,3.83
2018-08-16T16:57:10.268Z,3.40
2018-08-16T16:59:38.725Z,3.13
2018-08-16T17:02:07.373Z,3.73
2018-08-16T17:04:35.870Z,3.53
2018-08-16T17:07:04.488Z,3.90
2018-08-16T17:09:33.031Z,4.27
2018-08-16T17:12:01.582Z,3.03
2018-08-16T17:14:30.081Z,2.90
2018-08-16T17:16:58.594Z,2.83
2018-08-16T17:19:28.073Z,3.47
2018-08-16T17:21:56.804Z,4.00
2018-08-16T17:24:25.436Z,4.20
2018-08-16T17:26:54.105Z,3.40
2018-08-16T17:29:22.568Z,3.80
2018-08-16T17:31:51.004Z,3.57
2018-08-16T17:34:19.533Z,4.30
2018-08-16T17:36:47.989Z,4.07
2018-08-16T17:39:16.383Z,4.03
2018-08-16T17:41:44.916Z,4.10
2018-08-16T17:44:13.309Z,4.37
2018-08-16T17:46:41.758Z,3.80
2018-08-16T17:49:10.384Z,4.37
2018-08-16T17:51:38.885Z,3.47
2018-08-16T17:54:08.414Z,3.60
2018-08-16T17:56:36.881Z,4.20
2018-08-16T17:59:05.529Z,4.10
2018-08-16T18:01:33.987Z,3.93
2018-08-16T18:04:02.649Z,3.67
2018-08-16T18:06:32.640Z,4.40
2018-08-16T18:09:03.637Z,3.80
2018-08-16T18:20:47.929Z,4.00
2018-08-16T18:26:10.885Z,3.57
2018-08-16T18:31:48.540Z,4.07
2018-08-16T18:34:18.021Z,3.73
2018-08-16T18:36:46.640Z,3.43
2018-08-16T18:39:15.265Z,3.57
2018-08-16T18:41:45.792Z,3.50
2018-08-16T18:44:17.280Z,3.47
2018-08-16T18:46:48.623Z,3.40
2018-08-16T18:49:19.149Z,3.63
2018-08-16T18:57:50.145Z,3.70
2018-08-16T19:00:19.226Z,4.40
2018-08-16T19:02:49.621Z,3.47
2018-08-16T19:05:19.463Z,3.40
2018-08-16T19:07:50.125Z,3.50
2018-08-16T19:13:36.004Z,3.93
2018-08-16T19:16:09.085Z,3.60
2018-08-16T19:18:53.027Z,3.50
2018-08-16T19:21:21.667Z,3.00
2018-08-16T19:26:44.138Z,3.00
2018-08-16T19:29:15.261Z,3.20
2018-08-16T19:31:45.058Z,3.70
2018-08-16T19:34:19.637Z,3.13
2018-08-16T19:36:49.561Z,3.10
2018-08-16T19:39:20.183Z,3.37
2018-08-16T19:41:49.013Z,3.40
2018-08-16T19:44:18.973Z,3.40
2018-08-16T19:46:47.589Z,3.63
2018-08-16T19:49:17.233Z,3.20
2018-08-16T19:51:46.928Z,3.83
2018-08-16T19:54:18.164Z,3.57
2018-08-16T19:56:46.840Z,3.00
2018-08-16T19:59:15.427Z,3.33
2018-08-16T20:01:43.960Z,3.20
2018-08-16T20:04:15.358Z,3.10
2018-08-16T20:06:46.187Z,3.40
2018-08-16T20:09:16.913Z,3.40
2018-08-16T20:11:50.999Z,3.47
2018-08-16T20:14:20.732Z,3.63
2018-08-16T20:16:49.424Z,2.93
2018-08-16T20:22:18.717Z,3.40
2018-08-16T20:25:00.683Z,3.40
2018-08-16T20:27:29.760Z,3.77
2018-08-16T20:30:08.359Z,3.10
2018-08-16T20:32:37.231Z,3.20
2018-08-16T20:35:07.071Z,3.27
2018-08-16T20:37:36.863Z,3.20
2018-08-16T20:40:20.162Z,3.23
2018-08-16T20:42:48.916Z,3.40
2018-08-16T20:45:18.971Z,4.00
2018-08-16T20:47:47.832Z,3.70
2018-08-16T20:50:16.566Z,3.17
2018-08-16T20:52:45.486Z,3.57
2018-08-16T20:55:46.384Z,3.73
2018-08-16T20:58:15.508Z,3.30
2018-08-16T21:00:45.001Z,3.30
2018-08-16T21:07:08.644Z,3.33
2018-08-16T21:09:37.424Z,4.10
2018-08-16T21:12:19.722Z,3.63
2018-08-16T21:14:51.126Z,3.40
2018-08-16T21:17:19.836Z,4.23
2018-08-16T21:19:48.438Z,4.10
2018-08-16T21:22:17.072Z,3.83
2018-08-16T21:24:45.789Z,3.60
2018-08-16T21:29:56.913Z,3.60
2018-08-16T21:32:25.523Z,3.80
2018-08-16T21:35:06.307Z,3.77
2018-08-16T21:37:35.219Z,3.80
2018-08-16T21:40:03.974Z,3.53
2018-08-16T21:42:32.696Z,3.87
2018-08-16T21:45:14.851Z,3.40
2018-08-16T21:47:43.696Z,3.57
2018-08-16T21:50:12.411Z,3.70
2018-08-16T21:52:41.034Z,3.70
2018-08-16T21:55:09.634Z,3.93
2018-08-16T21:57:38.177Z,3.40
2018-08-16T22:00:10.800Z,3.63
2018-08-16T22:05:19.664Z,4.00
2018-08-16T22:08:09.662Z,3.50
2018-08-16T22:10:38.752Z,3.40
2018-08-16T22:13:07.347Z,4.03
2018-08-16T22:15:36.122Z,3.83
2018-08-16T22:18:04.876Z,3.70
2018-08-16T22:20:34.800Z,3.63
2018-08-16T22:23:05.330Z,3.33
2018-08-16T22:25:57.053Z,3.23
2018-08-16T22:28:25.719Z,3.23
2018-08-16T22:30:54.321Z,3.50
2018-08-16T22:33:22.890Z,3.83
2018-08-16T22:35:51.299Z,3.37
2018-08-16T22:38:19.821Z,3.37
2018-08-16T22:40:48.359Z,4.00
2018-08-16T22:43:16.894Z,3.97
2018-08-16T22:45:45.564Z,3.90
2018-08-16T22:48:14.361Z,3.50
2018-08-16T22:50:42.925Z,3.90
2018-08-16T22:53:11.520Z,3.83
2018-08-16T22:55:40.002Z,3.87
2018-08-16T22:58:08.527Z,3.50
2018-08-16T23:00:37.149Z,3.67
2018-08-16T23:03:05.742Z,3.63
2018-08-16T23:05:34.220Z,3.70
2018-08-16T23:08:02.669Z,4.13
2018-08-16T23:10:31.431Z,3.60
2018-08-16T23:13:00.122Z,3.60
2018-08-16T23:15:28.733Z,3.50
2018-08-16T23:17:57.684Z,3.87
2018-08-16T23:20:26.293Z,3.90
2018-08-16T23:22:55.037Z,3.53
2018-08-16T23:25:23.528Z,3.97
2018-08-16T23:27:51.950Z,3.47
2018-08-16T23:30:20.628Z,4.13
2018-08-16T23:32:49.232Z,3.83
2018-08-16T23:35:17.880Z,3.90
2018-08-16T23:37:47.070Z,3.90
2018-08-16T23:40:15.744Z,3.80
2018-08-16T23:42:44.322Z,3.87
2018-08-16T23:45:12.741Z,4.10
2018-08-16T23:47:41.304Z,4.07
2018-08-16T23:50:11.152Z,3.83
2018-08-16T23:52:39.666Z,4.00
2018-08-16T23:55:08.710Z,4.10
2018-08-16T23:57:37.370Z,3.73
